createdAt,value
2023-03-22T00:00:57.396Z,67.76
2023-03-22T00:02:19.612Z,67.64
2023-03-22T00:03:41.396Z,67.49
2023-03-22T00:05:07.198Z,67.75
2023-03-22T00:06:30.221Z,67.86
2023-03-22T00:07:54.303Z,67.99
2023-03-22T00:09:19.509Z,68.17
2023-03-22T00:10:46.946Z,68.09
2023-03-22T00:12:11.443Z,68.10
2023-03-22T00:13:35.708Z,68.19
2023-03-22T00:15:00.275Z,68.20
2023-03-22T00:16:22.385Z,68.19
2023-03-22T00:17:45.669Z,68.17
2023-03-22T00:19:07.098Z,68.33
2023-03-22T00:20:30.729Z,68.00
2023-03-22T00:21:53.040Z,68.26
2023-03-22T00:23:14.418Z,68.13
2023-03-22T00:24:36.406Z,68.19
2023-03-22T00:25:58.021Z,68.16
2023-03-22T00:27:21.989Z,67.98
2023-03-22T00:28:47.009Z,68.12
2023-03-22T00:30:12.208Z,68.08
2023-03-22T00:31:34.147Z,68.25
2023-03-22T00:32:57.028Z,68.20
2023-03-22T00:34:19.628Z,68.25
2023-03-22T00:35:41.202Z,68.36
2023-03-22T00:37:06.257Z,68.56
2023-03-22T00:38:41.991Z,68.40
2023-03-22T00:40:05.397Z,68.38
2023-03-22T00:41:27.393Z,68.40
2023-03-22T00:42:50.897Z,68.42
2023-03-22T00:44:13.864Z,68.19
2023-03-22T00:45:38.294Z,68.63
2023-03-22T00:47:00.806Z,68.37
2023-03-22T00:48:22.807Z,68.59
2023-03-22T00:49:45.001Z,68.54
2023-03-22T00:51:07.080Z,68.54
2023-03-22T00:52:29.085Z,68.57
2023-03-22T00:53:55.601Z,68.69
2023-03-22T00:55:19.059Z,68.89
2023-03-22T00:56:45.642Z,68.48
2023-03-22T00:58:10.031Z,68.78
2023-03-22T00:59:32.868Z,68.86
2023-03-22T01:00:55.018Z,69.12
2023-03-22T01:02:17.855Z,69.12
2023-03-22T01:03:38.816Z,69.29
2023-03-22T01:05:02.639Z,69.10
2023-03-22T01:06:25.175Z,69.45
2023-03-22T01:07:45.724Z,69.33
2023-03-22T01:09:07.731Z,69.19
2023-03-22T01:10:29.798Z,69.40
2023-03-22T01:11:51.778Z,69.45
2023-03-22T01:13:17.892Z,69.31
2023-03-22T01:14:39.980Z,69.33
2023-03-22T01:16:02.195Z,69.15
2023-03-22T01:17:24.434Z,69.46
2023-03-22T01:18:48.684Z,69.25
2023-03-22T01:20:12.712Z,69.20
2023-03-22T01:21:34.350Z,69.22
2023-03-22T01:22:57.203Z,69.32
2023-03-22T01:24:19.730Z,69.36
2023-03-22T01:25:41.170Z,69.40
2023-03-22T01:27:03.671Z,69.30
2023-03-22T01:28:27.318Z,69.47
2023-03-22T01:29:49.956Z,69.64
2023-03-22T01:31:12.204Z,69.25
2023-03-22T01:32:33.406Z,69.65
2023-03-22T01:33:55.550Z,69.83
2023-03-22T01:35:19.638Z,69.58
2023-03-22T01:36:42.101Z,69.64
2023-03-22T01:38:05.833Z,69.85
2023-03-22T01:39:33.244Z,69.50
2023-03-22T01:40:59.886Z,69.50
2023-03-22T01:42:24.836Z,69.53
2023-03-22T01:44:12.681Z,69.64
2023-03-22T01:45:38.015Z,69.47
2023-03-22T01:47:00.912Z,69.62
2023-03-22T01:48:27.340Z,69.41
2023-03-22T01:49:49.672Z,69.38
2023-03-22T01:51:14.376Z,69.40
2023-03-22T01:52:51.428Z,69.69
2023-03-22T01:54:26.105Z,69.52
2023-03-22T01:55:47.881Z,69.71
2023-03-22T01:57:18.559Z,69.85
2023-03-22T01:58:42.812Z,69.95
2023-03-22T02:00:10.502Z,69.86
2023-03-22T02:01:37.245Z,70.16
2023-03-22T02:03:00.326Z,69.91
2023-03-22T02:04:34.594Z,70.12
2023-03-22T02:05:59.824Z,70.17
2023-03-22T02:07:27.516Z,70.08
2023-03-22T02:08:58.194Z,70.15
2023-03-22T02:10:25.671Z,70.45
2023-03-22T02:12:03.361Z,70.40
2023-03-22T02:13:48.167Z,70.53
2023-03-22T02:15:36.583Z,70.64
2023-03-22T02:17:26.643Z,70.63
2023-03-22T02:19:16.757Z,70.55
2023-03-22T02:21:10.674Z,70.81
2023-03-22T02:22:48.018Z,70.70
2023-03-22T02:24:56.984Z,70.88
2023-03-22T02:26:50.034Z,70.87
2023-03-22T02:28:25.084Z,70.82
2023-03-22T02:29:53.361Z,70.76
2023-03-22T02:31:35.417Z,70.95
2023-03-22T02:33:30.945Z,70.95
2023-03-22T02:35:37.057Z,71.03
2023-03-22T02:37:27.774Z,71.02
2023-03-22T02:39:08.382Z,70.96
2023-03-22T02:40:34.994Z,70.97
2023-03-22T02:42:28.974Z,71.21
2023-03-22T02:44:03.550Z,71.21
2023-03-22T02:45:31.504Z,70.83
2023-03-22T02:47:03.228Z,70.97
2023-03-22T02:48:30.490Z,71.08
2023-03-22T02:50:03.912Z,71.18
2023-03-22T02:51:30.541Z,71.18
2023-03-22T02:52:57.472Z,71.25
2023-03-22T02:54:28.233Z,71.45
2023-03-22T02:55:54.901Z,71.31
2023-03-22T02:57:25.770Z,71.21
2023-03-22T02:58:54.319Z,71.30
2023-03-22T03:00:19.500Z,71.38
2023-03-22T03:01:45.732Z,71.32
2023-03-22T03:03:12.865Z,71.23
2023-03-22T03:04:39.128Z,71.26
2023-03-22T03:06:08.529Z,71.13
2023-03-22T03:07:32.563Z,71.08
2023-03-22T03:08:58.114Z,70.91
2023-03-22T03:10:24.150Z,71.01
2023-03-22T03:11:47.575Z,71.11
2023-03-22T03:13:13.591Z,71.21
2023-03-22T03:14:35.673Z,71.14
2023-03-22T03:15:59.859Z,71.04
2023-03-22T03:17:33.834Z,70.97
2023-03-22T03:19:02.474Z,70.93
2023-03-22T03:20:39.300Z,70.94
2023-03-22T03:22:09.563Z,70.83
2023-03-22T03:23:41.526Z,70.87
2023-03-22T03:25:09.724Z,70.95
2023-03-22T03:26:44.700Z,71.26
2023-03-22T03:28:12.828Z,70.82
2023-03-22T03:29:42.722Z,70.86
2023-03-22T03:31:17.993Z,70.85
2023-03-22T03:32:43.247Z,70.86
2023-03-22T03:34:14.356Z,71.10
2023-03-22T03:35:41.091Z,71.12
2023-03-22T03:37:10.592Z,71.44
2023-03-22T03:38:38.499Z,71.23
2023-03-22T03:40:06.806Z,71.13
2023-03-22T03:41:33.286Z,71.00
2023-03-22T03:42:59.164Z,71.07
2023-03-22T03:44:26.083Z,70.85
2023-03-22T03:45:49.051Z,71.15
2023-03-22T03:47:12.361Z,71.23
2023-03-22T03:48:36.060Z,71.14
2023-03-22T03:49:58.686Z,71.20
2023-03-22T03:51:19.939Z,70.93
2023-03-22T03:52:42.459Z,70.98
2023-03-22T03:54:04.845Z,70.89
2023-03-22T03:55:48.495Z,71.34
2023-03-22T03:57:34.226Z,71.10
2023-03-22T03:58:56.957Z,70.88
2023-03-22T04:00:20.531Z,71.23
2023-03-22T04:02:05.723Z,71.08
2023-03-22T04:03:27.425Z,71.11
2023-03-22T04:05:20.319Z,71.46
2023-03-22T04:06:42.994Z,71.34
2023-03-22T04:08:08.546Z,71.36
2023-03-22T04:09:33.774Z,71.51
2023-03-22T04:11:11.326Z,71.56
2023-03-22T04:12:34.964Z,71.87
2023-03-22T04:14:18.727Z,71.80
2023-03-22T04:15:43.845Z,71.91
2023-03-22T04:17:10.637Z,71.89
2023-03-22T04:18:32.277Z,72.10
2023-03-22T04:19:58.304Z,72.03
2023-03-22T04:21:20.053Z,72.15
2023-03-22T04:22:49.939Z,72.43
2023-03-22T04:24:14.086Z,72.46
2023-03-22T04:25:39.201Z,72.59
2023-03-22T04:27:04.681Z,72.34
2023-03-22T04:28:34.034Z,72.69
2023-03-22T04:29:58.263Z,72.60
2023-03-22T04:31:40.272Z,72.63
2023-03-22T04:33:13.314Z,72.73
2023-03-22T04:34:55.483Z,72.52
2023-03-22T04:36:17.682Z,72.87
2023-03-22T04:37:59.470Z,72.72
2023-03-22T04:39:21.628Z,72.76
2023-03-22T04:40:53.368Z,72.87
2023-03-22T04:42:25.703Z,72.56
2023-03-22T04:44:08.385Z,72.83
2023-03-22T04:45:35.215Z,72.41
2023-03-22T04:47:00.182Z,72.82
2023-03-22T04:48:22.464Z,73.05
2023-03-22T04:49:46.697Z,73.17
2023-03-22T04:51:12.571Z,73.17
2023-03-22T04:52:43.821Z,73.31
2023-03-22T04:54:07.384Z,73.41
2023-03-22T04:55:30.164Z,73.59
2023-03-22T04:56:53.542Z,73.46
2023-03-22T04:58:17.542Z,73.47
2023-03-22T04:59:41.601Z,73.58
2023-03-22T05:01:07.028Z,73.59
2023-03-22T05:02:32.439Z,73.72
2023-03-22T05:03:54.002Z,73.43
2023-03-22T05:05:18.919Z,73.75
2023-03-22T05:06:42.805Z,73.42
2023-03-22T05:08:14.782Z,73.46
2023-03-22T05:09:39.874Z,73.31
2023-03-22T05:11:09.244Z,73.15
2023-03-22T05:12:30.617Z,73.50
2023-03-22T05:14:13.304Z,73.39
2023-03-22T05:15:35.714Z,73.48
2023-03-22T05:17:01.088Z,73.53
2023-03-22T05:18:26.414Z,73.75
2023-03-22T05:19:56.683Z,73.34
2023-03-22T05:21:25.211Z,73.58
2023-03-22T05:23:13.078Z,73.19
2023-03-22T05:27:31.891Z,73.13
2023-03-22T05:29:15.603Z,72.82
2023-03-22T05:31:08.516Z,72.94
2023-03-22T05:32:49.752Z,72.82
2023-03-22T05:34:12.363Z,72.74
2023-03-22T05:35:37.493Z,72.94
2023-03-22T05:37:00.929Z,72.65
2023-03-22T05:38:37.816Z,72.68
2023-03-22T05:40:01.008Z,72.65
2023-03-22T05:41:36.364Z,72.63
2023-03-22T05:42:58.746Z,72.86
2023-03-22T05:44:22.735Z,72.91
2023-03-22T05:45:58.786Z,72.81
2023-03-22T05:47:32.794Z,72.65
2023-03-22T05:49:04.159Z,72.24
2023-03-22T05:50:26.617Z,72.26
2023-03-22T05:51:50.771Z,72.40
2023-03-22T05:53:14.650Z,71.97
2023-03-22T05:54:43.431Z,71.61
2023-03-22T05:56:05.257Z,71.62
2023-03-22T05:57:30.148Z,71.51
2023-03-22T05:58:53.361Z,71.31
2023-03-22T06:00:24.467Z,70.87
2023-03-22T06:02:07.217Z,70.76
2023-03-22T06:03:28.966Z,70.47
2023-03-22T06:05:03.262Z,70.33
2023-03-22T06:06:28.203Z,70.19
2023-03-22T06:08:13.419Z,69.89
2023-03-22T06:09:36.239Z,69.83
2023-03-22T06:11:02.391Z,69.61
2023-03-22T06:12:27.726Z,69.28
2023-03-22T06:14:03.439Z,69.01
2023-03-22T06:15:42.201Z,69.02
2023-03-22T06:17:07.036Z,68.84
2023-03-22T06:18:29.727Z,69.06
2023-03-22T06:19:58.713Z,68.46
2023-03-22T06:21:22.151Z,68.31
2023-03-22T06:22:45.018Z,68.19
2023-03-22T06:24:06.762Z,67.92
2023-03-22T06:25:30.112Z,67.61
2023-03-22T06:26:51.802Z,67.67
2023-03-22T06:28:14.576Z,67.55
2023-03-22T06:29:43.318Z,67.23
2023-03-22T06:31:11.096Z,66.77
2023-03-22T06:32:47.109Z,66.17
2023-03-22T06:34:09.837Z,65.60
2023-03-22T06:35:35.283Z,65.19
2023-03-22T06:37:00.189Z,64.91
2023-03-22T06:38:35.973Z,64.59
2023-03-22T06:39:58.703Z,64.29
2023-03-22T06:41:26.735Z,63.80
2023-03-22T06:42:52.485Z,63.51
2023-03-22T06:44:14.597Z,62.90
2023-03-22T06:45:47.937Z,62.44
2023-03-22T06:47:16.390Z,61.91
2023-03-22T06:48:53.925Z,61.51
2023-03-22T06:50:16.888Z,60.92
2023-03-22T06:52:12.828Z,60.47
2023-03-22T06:53:35.427Z,60.13
2023-03-22T06:54:59.077Z,60.02
2023-03-22T06:56:21.690Z,60.06
2023-03-22T06:57:51.631Z,60.07
2023-03-22T06:59:14.055Z,59.44
2023-03-22T07:00:39.528Z,59.10
2023-03-22T07:02:08.152Z,58.99
2023-03-22T07:03:32.446Z,58.77
2023-03-22T07:05:07.878Z,58.91
2023-03-22T07:06:33.737Z,59.01
2023-03-22T07:07:58.744Z,58.60
2023-03-22T07:09:25.100Z,58.18
2023-03-22T07:11:01.242Z,57.76
2023-03-22T07:12:28.948Z,57.22
2023-03-22T07:14:00.587Z,56.73
2023-03-22T07:15:48.865Z,56.57
2023-03-22T07:17:33.152Z,56.27
2023-03-22T07:19:04.122Z,56.22
2023-03-22T07:20:28.466Z,55.77
2023-03-22T07:21:58.442Z,56.01
2023-03-22T07:23:28.717Z,55.85
2023-03-22T07:25:01.608Z,56.10
2023-03-22T07:26:26.831Z,55.95
2023-03-22T07:28:00.112Z,55.35
2023-03-22T07:29:29.859Z,54.79
2023-03-22T07:31:06.115Z,54.61
2023-03-22T07:32:44.234Z,54.32
2023-03-22T07:34:24.444Z,53.99
2023-03-22T07:36:03.521Z,53.99
2023-03-22T07:37:28.054Z,53.80
2023-03-22T07:38:54.312Z,53.44
2023-03-22T07:40:28.608Z,53.01
2023-03-22T07:42:00.448Z,52.84
2023-03-22T07:43:53.076Z,52.66
2023-03-22T07:45:18.622Z,52.36
2023-03-22T07:46:56.341Z,51.84
2023-03-22T07:48:32.695Z,51.74
2023-03-22T07:50:34.617Z,51.81
2023-03-22T07:52:06.952Z,51.56
2023-03-22T07:53:29.480Z,51.35
2023-03-22T07:54:59.444Z,51.69
2023-03-22T07:56:26.504Z,51.23
2023-03-22T07:57:49.250Z,50.83
2023-03-22T07:59:19.534Z,50.38
2023-03-22T08:00:42.476Z,50.05
2023-03-22T08:02:39.528Z,50.33
2023-03-22T08:04:02.903Z,49.51
2023-03-22T08:05:36.179Z,49.09
2023-03-22T08:07:04.826Z,48.41
2023-03-22T08:08:28.873Z,47.39
2023-03-22T08:09:58.367Z,47.10
2023-03-22T08:11:40.299Z,46.41
2023-03-22T08:13:04.239Z,46.39
2023-03-22T08:14:36.582Z,45.59
2023-03-22T08:16:06.304Z,45.51
2023-03-22T08:17:32.432Z,45.38
2023-03-22T08:18:54.959Z,44.67
2023-03-22T08:20:27.574Z,43.58
2023-03-22T08:21:56.360Z,42.75
2023-03-22T08:24:07.069Z,42.87
2023-03-22T08:25:40.163Z,42.78
2023-03-22T08:27:12.421Z,42.63
2023-03-22T08:28:41.566Z,42.86
2023-03-22T08:30:12.157Z,42.96
2023-03-22T08:31:39.277Z,42.33
2023-03-22T08:33:04.705Z,42.10
2023-03-22T08:34:33.582Z,41.37
2023-03-22T08:36:09.502Z,40.58
2023-03-22T08:37:39.838Z,40.17
2023-03-22T08:39:06.837Z,39.86
2023-03-22T08:40:47.216Z,39.40
2023-03-22T08:42:16.450Z,38.40
2023-03-22T08:43:39.956Z,38.11
2023-03-22T08:45:03.171Z,38.06
2023-03-22T08:46:31.497Z,37.02
2023-03-22T08:47:58.533Z,36.57
2023-03-22T08:49:27.661Z,35.11
2023-03-22T08:51:08.281Z,33.24
2023-03-22T08:52:43.290Z,31.25
2023-03-22T08:54:22.639Z,30.13
2023-03-22T08:56:02.514Z,29.54
2023-03-22T08:57:50.784Z,29.45
2023-03-22T08:59:36.328Z,29.07
2023-03-22T09:01:37.767Z,28.62
2023-03-22T09:03:03.835Z,26.81
2023-03-22T09:04:28.763Z,25.67
2023-03-22T09:05:52.977Z,24.95
2023-03-22T09:07:17.963Z,24.88
2023-03-22T09:08:47.413Z,25.02
2023-03-22T09:10:23.650Z,24.99
2023-03-22T09:11:48.037Z,24.75
2023-03-22T09:13:18.005Z,26.06
2023-03-22T09:14:48.289Z,26.08
2023-03-22T09:16:15.357Z,25.84
2023-03-22T09:17:39.681Z,25.99
2023-03-22T09:19:02.971Z,25.23
2023-03-22T09:20:26.668Z,24.98
2023-03-22T09:21:50.368Z,24.37
2023-03-22T09:23:36.306Z,23.63
2023-03-22T09:25:04.489Z,24.20
2023-03-22T09:26:30.415Z,25.00
2023-03-22T09:27:52.929Z,25.56
2023-03-22T09:29:17.261Z,26.32
2023-03-22T09:30:40.691Z,25.66
2023-03-22T09:32:07.342Z,25.47
2023-03-22T09:33:44.626Z,25.03
2023-03-22T09:35:08.854Z,25.39
2023-03-22T09:36:43.077Z,25.95
2023-03-22T09:38:06.684Z,25.89
2023-03-22T09:39:30.007Z,26.20
2023-03-22T09:41:03.319Z,26.78
2023-03-22T09:42:35.434Z,26.89
2023-03-22T09:44:05.625Z,26.98
2023-03-22T09:45:38.750Z,27.80
2023-03-22T09:47:07.128Z,28.20
2023-03-22T09:48:34.033Z,28.10
2023-03-22T09:50:14.274Z,27.87
2023-03-22T09:51:43.112Z,28.41
2023-03-22T09:53:15.136Z,28.80
2023-03-22T09:54:42.344Z,29.07
2023-03-22T09:56:11.891Z,29.25
2023-03-22T09:57:38.096Z,29.69
2023-03-22T09:59:15.068Z,29.45
2023-03-22T10:00:45.864Z,29.94
2023-03-22T10:02:28.759Z,29.67
2023-03-22T10:04:13.746Z,29.08
2023-03-22T10:05:42.159Z,29.08
2023-03-22T10:07:12.042Z,29.24
2023-03-22T10:08:52.546Z,28.61
2023-03-22T10:10:23.637Z,28.22
2023-03-22T10:11:50.384Z,28.14
2023-03-22T10:13:23.362Z,27.66
2023-03-22T10:14:53.041Z,27.98
2023-03-22T10:16:29.712Z,27.94
2023-03-22T10:18:02.180Z,27.70
2023-03-22T10:19:28.404Z,28.30
2023-03-22T10:20:59.339Z,28.43
2023-03-22T10:22:30.293Z,27.46
2023-03-22T10:23:57.032Z,27.22
2023-03-22T10:25:27.105Z,27.34
2023-03-22T10:26:50.220Z,27.64
2023-03-22T10:28:20.717Z,26.75
2023-03-22T10:29:54.422Z,27.21
2023-03-22T10:31:21.573Z,26.85
2023-03-22T10:32:57.750Z,26.33
2023-03-22T10:34:24.937Z,26.59
2023-03-22T10:35:53.568Z,26.78
2023-03-22T10:37:19.098Z,26.51
2023-03-22T10:38:48.485Z,27.09
2023-03-22T10:40:20.440Z,26.71
2023-03-22T10:41:43.159Z,27.27
2023-03-22T10:43:14.495Z,27.55
2023-03-22T10:44:50.429Z,28.69
2023-03-22T10:46:24.511Z,28.94
2023-03-22T10:47:52.106Z,29.81
2023-03-22T10:49:23.659Z,29.60
2023-03-22T10:50:46.350Z,29.55
2023-03-22T10:52:25.437Z,29.35
2023-03-22T10:53:49.790Z,30.33
2023-03-22T10:55:13.882Z,30.19
2023-03-22T10:56:36.522Z,30.11
2023-03-22T10:58:12.518Z,30.45
2023-03-22T10:59:48.839Z,30.75
2023-03-22T11:01:17.500Z,31.39
2023-03-22T11:02:52.432Z,31.46
2023-03-22T11:04:15.295Z,32.00
2023-03-22T11:05:39.120Z,32.61
2023-03-22T11:07:01.665Z,32.43
2023-03-22T11:08:24.381Z,33.19
2023-03-22T11:09:48.143Z,32.78
2023-03-22T11:11:23.258Z,33.02
2023-03-22T11:12:51.155Z,33.42
2023-03-22T11:14:18.629Z,34.07
2023-03-22T11:15:52.372Z,33.52
2023-03-22T11:17:19.459Z,33.56
2023-03-22T11:18:43.361Z,34.08
2023-03-22T11:20:07.826Z,33.76
2023-03-22T11:21:34.214Z,33.65
2023-03-22T11:22:58.083Z,34.04
2023-03-22T11:24:24.042Z,33.61
2023-03-22T11:25:49.526Z,33.75
2023-03-22T11:27:21.608Z,33.86
2023-03-22T11:28:47.332Z,34.07
2023-03-22T11:30:21.273Z,34.16
2023-03-22T11:31:55.188Z,34.19
2023-03-22T11:33:21.339Z,33.98
2023-03-22T11:34:47.480Z,33.79
2023-03-22T11:36:19.111Z,33.74
2023-03-22T11:37:42.732Z,33.71
2023-03-22T11:39:09.395Z,33.88
2023-03-22T11:40:32.650Z,33.99
2023-03-22T11:41:57.761Z,33.99
2023-03-22T11:43:24.789Z,34.07
2023-03-22T11:44:46.939Z,33.72
2023-03-22T11:46:10.173Z,33.68
2023-03-22T11:47:37.379Z,33.86
2023-03-22T11:49:02.049Z,33.74
2023-03-22T11:50:31.484Z,33.67
2023-03-22T11:51:54.592Z,34.02
2023-03-22T11:53:19.578Z,33.85
2023-03-22T11:54:43.991Z,33.71
2023-03-22T11:56:08.752Z,33.87
2023-03-22T11:57:37.227Z,34.01
2023-03-22T11:59:04.615Z,34.07
2023-03-22T12:00:29.728Z,34.07
2023-03-22T12:01:56.711Z,34.69
2023-03-22T12:03:23.349Z,34.39
2023-03-22T12:04:49.239Z,34.54
2023-03-22T12:06:26.072Z,34.98
2023-03-22T12:07:50.052Z,35.34
2023-03-22T12:09:25.199Z,34.90
2023-03-22T12:10:51.558Z,34.67
2023-03-22T12:12:19.226Z,34.97
2023-03-22T12:13:48.173Z,34.57
2023-03-22T12:15:17.071Z,34.96
2023-03-22T12:16:48.781Z,35.24
2023-03-22T12:18:17.774Z,34.55
2023-03-22T12:19:52.088Z,35.15
2023-03-22T12:21:15.849Z,35.69
2023-03-22T12:22:43.494Z,35.13
2023-03-22T12:24:13.190Z,35.07
2023-03-22T12:25:38.349Z,34.79
2023-03-22T12:27:06.561Z,34.87
2023-03-22T12:28:34.893Z,34.87
2023-03-22T12:30:01.011Z,35.17
2023-03-22T12:31:26.676Z,35.59
2023-03-22T12:32:53.839Z,35.33
2023-03-22T12:34:18.850Z,34.97
2023-03-22T12:35:46.330Z,34.85
2023-03-22T12:37:22.077Z,35.48
2023-03-22T12:38:50.579Z,35.43
2023-03-22T12:40:22.200Z,35.64
2023-03-22T12:41:48.235Z,35.81
2023-03-22T12:43:18.301Z,35.69
2023-03-22T12:44:46.485Z,35.81
2023-03-22T12:46:20.106Z,35.30
2023-03-22T12:47:45.610Z,35.47
2023-03-22T12:49:21.569Z,35.42
2023-03-22T12:50:48.467Z,35.41
2023-03-22T12:52:16.820Z,35.37
2023-03-22T12:53:43.681Z,35.69
2023-03-22T12:55:07.328Z,35.54
2023-03-22T12:56:38.374Z,36.18
2023-03-22T12:58:01.810Z,36.17
2023-03-22T12:59:28.055Z,35.72
2023-03-22T13:00:55.081Z,35.81
2023-03-22T13:02:20.382Z,35.74
2023-03-22T13:03:47.597Z,35.34
2023-03-22T13:05:12.927Z,35.62
2023-03-22T13:06:57.296Z,35.51
2023-03-22T13:08:22.006Z,35.61
2023-03-22T13:09:46.760Z,35.98
2023-03-22T13:11:24.299Z,36.57
2023-03-22T13:13:16.045Z,36.77
2023-03-22T13:15:00.423Z,35.93
2023-03-22T13:16:25.558Z,35.46
2023-03-22T13:17:48.008Z,36.10
2023-03-22T13:19:29.707Z,36.27
2023-03-22T13:21:13.984Z,36.06
2023-03-22T13:23:01.747Z,35.73
2023-03-22T13:24:25.016Z,36.18
2023-03-22T13:26:03.874Z,35.79
2023-03-22T13:27:38.034Z,35.43
2023-03-22T13:29:03.453Z,35.30
2023-03-22T13:30:28.140Z,34.96
2023-03-22T13:31:58.857Z,35.13
2023-03-22T13:33:25.904Z,35.29
2023-03-22T13:34:50.995Z,35.54
2023-03-22T13:36:25.735Z,35.46
2023-03-22T13:37:51.342Z,35.64
2023-03-22T13:39:17.827Z,35.12
2023-03-22T13:40:50.994Z,35.28
2023-03-22T13:42:22.995Z,35.97
2023-03-22T13:43:50.317Z,35.56
2023-03-22T13:45:32.655Z,35.54
2023-03-22T13:46:59.839Z,36.30
2023-03-22T13:48:33.667Z,36.29
2023-03-22T13:50:02.514Z,35.60
2023-03-22T13:51:32.023Z,35.79
2023-03-22T13:52:59.756Z,35.59
2023-03-22T13:54:25.119Z,35.51
2023-03-22T13:56:00.446Z,35.26
2023-03-22T13:57:46.463Z,35.03
2023-03-22T13:59:12.966Z,36.37
2023-03-22T14:00:42.840Z,36.39
2023-03-22T14:02:13.058Z,36.01
2023-03-22T14:03:37.807Z,36.08
2023-03-22T14:05:04.314Z,35.37
2023-03-22T14:06:29.322Z,35.22
2023-03-22T14:07:54.543Z,35.09
2023-03-22T14:09:26.814Z,35.74
2023-03-22T14:10:53.888Z,35.19
2023-03-22T14:12:21.330Z,35.47
2023-03-22T14:13:56.406Z,35.19
2023-03-22T14:15:20.985Z,35.82
2023-03-22T14:16:47.118Z,35.92
2023-03-22T14:18:17.328Z,36.39
2023-03-22T14:19:40.095Z,36.36
2023-03-22T14:21:07.650Z,36.34
